sensor_id;sensor_type;location;lat;lon;timestamp;pressure;altitude;pressure_sealevel;temperature;humidity
77702;BME280;66868;42.708;23.404;2023-04-20T00:01:10;94801.44;;;8.99;95.58
77702;BME280;66868;42.708;23.404;2023-04-20T00:03:35;94783.47;;;8.90;95.80
77702;BME280;66868;42.708;23.404;2023-04-20T00:06:02;94806.50;;;8.99;95.57
77702;BME280;66868;42.708;23.404;2023-04-20T00:08:27;94805.97;;;9.08;95.33
77702;BME280;66868;42.708;23.404;2023-04-20T00:10:53;94800.97;;;9.07;95.07
77702;BME280;66868;42.708;23.404;2023-04-20T00:13:18;94801.63;;;8.96;95.97
77702;BME280;66868;42.708;23.404;2023-04-20T00:15:44;94804.81;;;8.84;96.47
77702;BME280;66868;42.708;23.404;2023-04-20T00:18:09;94795.63;;;8.69;97.15
77702;BME280;66868;42.708;23.404;2023-04-20T00:20:35;94791.50;;;8.52;97.88
77702;BME280;66868;42.708;23.404;2023-04-20T00:23:01;94789.72;;;8.54;97.48
77702;BME280;66868;42.708;23.404;2023-04-20T00:25:26;94794.84;;;8.53;96.87
77702;BME280;66868;42.708;23.404;2023-04-20T00:27:52;94718.44;;;8.05;96.55
77702;BME280;66868;42.708;23.404;2023-04-20T00:30:17;94783.03;;;8.53;95.77
77702;BME280;66868;42.708;23.404;2023-04-20T00:32:42;94794.66;;;8.56;95.98
77702;BME280;66868;42.708;23.404;2023-04-20T00:35:08;94793.22;;;8.52;96.41
77702;BME280;66868;42.708;23.404;2023-04-20T00:37:33;94790.13;;;8.47;96.66
77702;BME280;66868;42.708;23.404;2023-04-20T00:39:59;94793.22;;;8.52;96.44
77702;BME280;66868;42.708;23.404;2023-04-20T00:42:24;94789.34;;;8.46;96.45
77702;BME280;66868;42.708;23.404;2023-04-20T00:44:50;94787.00;;;8.27;98.20
77702;BME280;66868;42.708;23.404;2023-04-20T00:47:15;94757.19;;;8.04;97.93
77702;BME280;66868;42.708;23.404;2023-04-20T00:49:41;94776.47;;;8.19;97.81
77702;BME280;66868;42.708;23.404;2023-04-20T00:52:07;94788.75;;;8.25;97.56
77702;BME280;66868;42.708;23.404;2023-04-20T00:54:33;94775.53;;;8.06;97.70
77702;BME280;66868;42.708;23.404;2023-04-20T00:57:00;94777.16;;;8.07;97.43
77702;BME280;66868;42.708;23.404;2023-04-20T00:59:26;94785.94;;;8.16;97.20
77702;BME280;66868;42.708;23.404;2023-04-20T01:01:52;94770.34;;;8.09;97.53
77702;BME280;66868;42.708;23.404;2023-04-20T01:04:18;94783.97;;;8.21;96.98
77702;BME280;66868;42.708;23.404;2023-04-20T01:06:44;94779.09;;;8.18;96.39
77702;BME280;66868;42.708;23.404;2023-04-20T01:09:10;94789.28;;;8.16;96.41
77702;BME280;66868;42.708;23.404;2023-04-20T01:11:36;94790.97;;;8.00;96.87
77702;BME280;66868;42.708;23.404;2023-04-20T01:14:02;94782.88;;;7.95;97.53
77702;BME280;66868;42.708;23.404;2023-04-20T01:16:27;94789.19;;;8.02;97.95
77702;BME280;66868;42.708;23.404;2023-04-20T01:18:53;94783.97;;;8.05;98.17
77702;BME280;66868;42.708;23.404;2023-04-20T01:21:19;94776.09;;;8.11;98.10
77702;BME280;66868;42.708;23.404;2023-04-20T01:23:46;94784.63;;;8.24;97.41
77702;BME280;66868;42.708;23.404;2023-04-20T01:26:14;94779.56;;;8.24;98.36
77702;BME280;66868;42.708;23.404;2023-04-20T01:28:39;94768.34;;;8.14;97.90
77702;BME280;66868;42.708;23.404;2023-04-20T01:31:06;94775.88;;;8.31;98.42
77702;BME280;66868;42.708;23.404;2023-04-20T01:33:32;94773.16;;;8.34;97.66
77702;BME280;66868;42.708;23.404;2023-04-20T01:35:58;94784.63;;;8.40;97.80
77702;BME280;66868;42.708;23.404;2023-04-20T01:38:24;94775.00;;;8.47;97.56
77702;BME280;66868;42.708;23.404;2023-04-20T01:40:50;94760.03;;;8.43;96.79
77702;BME280;66868;42.708;23.404;2023-04-20T01:43:18;94765.88;;;8.60;95.84
77702;BME280;66868;42.708;23.404;2023-04-20T01:45:43;94749.63;;;8.50;94.98
77702;BME280;66868;42.708;23.404;2023-04-20T01:48:09;94752.88;;;8.66;94.01
77702;BME280;66868;42.708;23.404;2023-04-20T01:50:34;94765.50;;;8.66;93.53
77702;BME280;66868;42.708;23.404;2023-04-20T01:53:00;94772.06;;;8.54;94.45
77702;BME280;66868;42.708;23.404;2023-04-20T01:55:25;94759.00;;;8.62;94.22
77702;BME280;66868;42.708;23.404;2023-04-20T01:57:51;94748.34;;;8.57;93.00
77702;BME280;66868;42.708;23.404;2023-04-20T02:00:16;94765.16;;;8.72;91.63
77702;BME280;66868;42.708;23.404;2023-04-20T02:02:42;94767.69;;;8.72;91.30
77702;BME280;66868;42.708;23.404;2023-04-20T02:05:07;94763.19;;;8.77;90.15
77702;BME280;66868;42.708;23.404;2023-04-20T02:07:33;94755.25;;;8.69;90.40
77702;BME280;66868;42.708;23.404;2023-04-20T02:09:58;94763.19;;;8.77;89.75
77702;BME280;66868;42.708;23.404;2023-04-20T02:12:24;94761.47;;;8.77;89.83
77702;BME280;66868;42.708;23.404;2023-04-20T02:14:49;94767.69;;;8.72;89.89
77702;BME280;66868;42.708;23.404;2023-04-20T02:17:14;94757.56;;;8.58;89.35
77702;BME280;66868;42.708;23.404;2023-04-20T02:19:40;94765.97;;;8.72;89.37
77702;BME280;66868;42.708;23.404;2023-04-20T02:22:05;94768.75;;;8.68;89.33
77702;BME280;66868;42.708;23.404;2023-04-20T02:24:31;94747.28;;;8.61;89.41
77702;BME280;66868;42.708;23.404;2023-04-20T02:26:57;94749.81;;;8.61;89.05
77702;BME280;66868;42.708;23.404;2023-04-20T02:29:23;94763.53;;;8.71;88.37
77702;BME280;66868;42.708;23.404;2023-04-20T02:31:49;94765.16;;;8.72;88.74
77702;BME280;66868;42.708;23.404;2023-04-20T02:34:14;94755.41;;;8.66;88.43
77702;BME280;66868;42.708;23.404;2023-04-20T02:36:40;94763.53;;;8.71;88.63
77702;BME280;66868;42.708;23.404;2023-04-20T02:39:05;94768.22;;;8.77;87.85
77702;BME280;66868;42.708;23.404;2023-04-20T02:41:31;94765.72;;;8.77;87.75
77702;BME280;66868;42.708;23.404;2023-04-20T02:43:56;94760.13;;;8.72;87.56
77702;BME280;66868;42.708;23.404;2023-04-20T02:46:22;94767.63;;;8.88;87.44
77702;BME280;66868;42.708;23.404;2023-04-20T02:48:47;94764.09;;;8.90;86.52
77702;BME280;66868;42.708;23.404;2023-04-20T02:51:12;94768.25;;;8.91;86.95
77702;BME280;66868;42.708;23.404;2023-04-20T02:53:38;94764.47;;;8.98;86.58
77702;BME280;66868;42.708;23.404;2023-04-20T02:56:03;94763.84;;;9.09;86.64
77702;BME280;66868;42.708;23.404;2023-04-20T02:58:29;94753.84;;;9.07;86.00
77702;BME280;66868;42.708;23.404;2023-04-20T03:00:59;94749.31;;;9.12;85.70
77702;BME280;66868;42.708;23.404;2023-04-20T03:03:25;94770.63;;;9.22;85.27
77702;BME280;66868;42.708;23.404;2023-04-20T03:05:51;94763.78;;;9.24;85.74
77702;BME280;66868;42.708;23.404;2023-04-20T03:08:16;94767.47;;;9.19;85.37
77702;BME280;66868;42.708;23.404;2023-04-20T03:10:42;94753.56;;;9.12;85.12
77702;BME280;66868;42.708;23.404;2023-04-20T03:13:07;94767.19;;;9.23;85.13
77702;BME280;66868;42.708;23.404;2023-04-20T03:15:33;94763.78;;;9.24;84.87
77702;BME280;66868;42.708;23.404;2023-04-20T03:17:58;94766.19;;;9.26;84.20
77702;BME280;66868;42.708;23.404;2023-04-20T03:20:24;94764.13;;;9.18;85.33
77702;BME280;66868;42.708;23.404;2023-04-20T03:22:49;94766.84;;;9.01;86.38
77702;BME280;66868;42.708;23.404;2023-04-20T03:25:15;94763.22;;;8.91;88.54
77702;BME280;66868;42.708;23.404;2023-04-20T03:27:40;94763.03;;;8.94;88.59
77702;BME280;66868;42.708;23.404;2023-04-20T03:30:06;94774.47;;;9.00;88.63
77702;BME280;66868;42.708;23.404;2023-04-20T03:33:10;94773.97;;;8.65;90.12
77702;BME280;66868;42.708;23.404;2023-04-20T03:35:36;94776.28;;;8.54;90.73
77702;BME280;66868;42.708;23.404;2023-04-20T03:38:04;94762.75;;;8.40;90.84
77702;BME280;66868;42.708;23.404;2023-04-20T03:40:29;94769.19;;;8.30;91.76
77702;BME280;66868;42.708;23.404;2023-04-20T03:42:57;94763.50;;;8.11;92.22
77702;BME280;66868;42.708;23.404;2023-04-20T03:45:22;94767.25;;;8.04;93.00
77702;BME280;66868;42.708;23.404;2023-04-20T03:47:48;94764.00;;;8.02;93.50
77702;BME280;66868;42.708;23.404;2023-04-20T03:50:13;94769.34;;;7.96;93.67
77702;BME280;66868;42.708;23.404;2023-04-20T03:52:38;94775.84;;;8.00;93.96
77702;BME280;66868;42.708;23.404;2023-04-20T03:55:05;94768.91;;;7.89;93.94
77702;BME280;66868;42.708;23.404;2023-04-20T03:57:32;94779.94;;;7.87;94.18
77702;BME280;66868;42.708;23.404;2023-04-20T03:59:57;94783.75;;;7.94;93.96
77702;BME280;66868;42.708;23.404;2023-04-20T04:02:23;94772.13;;;8.07;93.24
77702;BME280;66868;42.708;23.404;2023-04-20T04:04:48;94776.53;;;8.04;93.61
77702;BME280;66868;42.708;23.404;2023-04-20T04:07:14;94780.56;;;8.06;93.41
77702;BME280;66868;42.708;23.404;2023-04-20T04:09:39;94779.75;;;8.06;93.35
77702;BME280;66868;42.708;23.404;2023-04-20T04:12:05;94777.91;;;8.09;93.70
77702;BME280;66868;42.708;23.404;2023-04-20T04:14:33;94781.63;;;8.02;94.12
77702;BME280;66868;42.708;23.404;2023-04-20T04:16:59;94785.78;;;8.03;94.44
77702;BME280;66868;42.708;23.404;2023-04-20T04:19:24;94777.66;;;7.98;94.54
77702;BME280;66868;42.708;23.404;2023-04-20T04:21:50;94785.28;;;8.12;93.60
77702;BME280;66868;42.708;23.404;2023-04-20T04:24:15;94788.53;;;8.14;94.06
77702;BME280;66868;42.708;23.404;2023-04-20T04:26:41;94785.47;;;8.09;94.17
77702;BME280;66868;42.708;23.404;2023-04-20T04:29:07;94785.13;;;8.15;93.28
77702;BME280;66868;42.708;23.404;2023-04-20T04:31:35;94771.28;;;8.22;92.92
77702;BME280;66868;42.708;23.404;2023-04-20T04:34:01;94787.22;;;8.38;92.61
77702;BME280;66868;42.708;23.404;2023-04-20T04:36:26;94791.69;;;8.49;91.98
77702;BME280;66868;42.708;23.404;2023-04-20T04:38:52;94781.25;;;8.55;91.14
77702;BME280;66868;42.708;23.404;2023-04-20T04:41:17;94786.25;;;8.71;89.99
77702;BME280;66868;42.708;23.404;2023-04-20T04:43:43;94785.81;;;8.78;89.31
77702;BME280;66868;42.708;23.404;2023-04-20T04:46:09;94795.84;;;8.94;88.24
77702;BME280;66868;42.708;23.404;2023-04-20T04:48:38;94793.34;;;9.08;86.99
77702;BME280;66868;42.708;23.404;2023-04-20T04:51:08;94801.09;;;9.19;86.56
77702;BME280;66868;42.708;23.404;2023-04-20T04:53:34;94789.47;;;9.31;85.48
77702;BME280;66868;42.708;23.404;2023-04-20T04:55:59;94800.13;;;9.36;84.69
77702;BME280;66868;42.708;23.404;2023-04-20T04:58:25;94806.16;;;9.48;84.26
77702;BME280;66868;42.708;23.404;2023-04-20T05:00:50;94779.00;;;9.37;83.46
77702;BME280;66868;42.708;23.404;2023-04-20T05:03:16;94800.03;;;9.66;82.37
77702;BME280;66868;42.708;23.404;2023-04-20T05:05:41;94796.41;;;9.70;82.21
77702;BME280;66868;42.708;23.404;2023-04-20T05:08:07;94812.81;;;9.77;81.68
77702;BME280;66868;42.708;23.404;2023-04-20T05:10:32;94815.53;;;9.74;82.65
77702;BME280;66868;42.708;23.404;2023-04-20T05:12:57;94810.53;;;9.87;81.49
77702;BME280;66868;42.708;23.404;2023-04-20T05:15:25;94806.22;;;9.89;81.40
77702;BME280;66868;42.708;23.404;2023-04-20T05:17:50;94802.34;;;9.83;82.58
77702;BME280;66868;42.708;23.404;2023-04-20T05:20:16;94813.59;;;9.92;83.14
77702;BME280;66868;42.708;23.404;2023-04-20T05:22:41;94794.75;;;9.83;82.28
77702;BME280;66868;42.708;23.404;2023-04-20T05:25:07;94819.81;;;10.00;83.00
77702;BME280;66868;42.708;23.404;2023-04-20T05:27:33;94819.81;;;10.00;83.12
77702;BME280;66868;42.708;23.404;2023-04-20T05:29:58;94816.75;;;9.95;84.00
77702;BME280;66868;42.708;23.404;2023-04-20T05:32:24;94820.72;;;9.99;82.78
77702;BME280;66868;42.708;23.404;2023-04-20T05:34:49;94788.16;;;9.81;83.65
77702;BME280;66868;42.708;23.404;2023-04-20T05:37:15;94831.38;;;10.04;83.11
77702;BME280;66868;42.708;23.404;2023-04-20T05:39:41;94819.56;;;9.91;84.32
77702;BME280;66868;42.708;23.404;2023-04-20T05:42:06;94797.47;;;9.80;84.12
77702;BME280;66868;42.708;23.404;2023-04-20T05:44:32;94829.31;;;9.97;84.59
77702;BME280;66868;42.708;23.404;2023-04-20T05:46:58;94818.28;;;9.98;84.37
77702;BME280;66868;42.708;23.404;2023-04-20T05:49:24;94828.38;;;10.12;84.04
77702;BME280;66868;42.708;23.404;2023-04-20T05:51:49;94831.63;;;10.14;83.74
77702;BME280;66868;42.708;23.404;2023-04-20T05:54:15;94832.72;;;10.10;83.63
77702;BME280;66868;42.708;23.404;2023-04-20T05:56:40;94835.31;;;10.08;84.48
77702;BME280;66868;42.708;23.404;2023-04-20T05:59:06;94841.13;;;10.10;83.52
77702;BME280;66868;42.708;23.404;2023-04-20T06:01:31;94829.84;;;10.16;83.49
77702;BME280;66868;42.708;23.404;2023-04-20T06:03:57;94828.47;;;10.25;83.91
77702;BME280;66868;42.708;23.404;2023-04-20T06:06:22;94818.16;;;10.13;84.76
77702;BME280;66868;42.708;23.404;2023-04-20T06:08:47;94822.53;;;9.97;85.60
77702;BME280;66868;42.708;23.404;2023-04-20T06:11:15;94829.38;;;10.09;85.51
77702;BME280;66868;42.708;23.404;2023-04-20T06:13:40;94818.44;;;10.09;84.96
77702;BME280;66868;42.708;23.404;2023-04-20T06:16:06;94825.41;;;10.19;85.02
77702;BME280;66868;42.708;23.404;2023-04-20T06:18:33;94829.53;;;10.35;83.31
77702;BME280;66868;42.708;23.404;2023-04-20T06:20:59;94836.47;;;10.31;84.31
77702;BME280;66868;42.708;23.404;2023-04-20T06:23:26;94823.47;;;10.50;82.11
77702;BME280;66868;42.708;23.404;2023-04-20T06:25:51;94830.59;;;10.45;84.09
77702;BME280;66868;42.708;23.404;2023-04-20T06:28:17;94831.59;;;10.55;82.66
77702;BME280;66868;42.708;23.404;2023-04-20T06:30:42;94826.38;;;10.58;82.06
77702;BME280;66868;42.708;23.404;2023-04-20T06:33:07;94834.78;;;10.58;80.97
77702;BME280;66868;42.708;23.404;2023-04-20T06:35:33;94832.41;;;10.55;81.54
77702;BME280;66868;42.708;23.404;2023-04-20T06:37:58;94829.41;;;10.63;81.19
77702;BME280;66868;42.708;23.404;2023-04-20T06:40:27;94846.22;;;10.64;82.45
77702;BME280;66868;42.708;23.404;2023-04-20T06:42:53;94833.47;;;10.66;82.10
77702;BME280;66868;42.708;23.404;2023-04-20T06:45:18;94838.81;;;10.61;81.76
77702;BME280;66868;42.708;23.404;2023-04-20T06:47:44;94842.84;;;10.63;83.63
77702;BME280;66868;42.708;23.404;2023-04-20T06:50:10;94837.88;;;10.49;83.97
77702;BME280;66868;42.708;23.404;2023-04-20T06:52:36;94842.31;;;10.46;85.09
77702;BME280;66868;42.708;23.404;2023-04-20T06:55:02;94844.59;;;10.63;85.34
77702;BME280;66868;42.708;23.404;2023-04-20T06:57:28;94856.41;;;10.89;83.65
77702;BME280;66868;42.708;23.404;2023-04-20T06:59:53;94853.00;;;11.03;83.91
77702;BME280;66868;42.708;23.404;2023-04-20T07:02:18;94854.03;;;11.13;83.20
77702;BME280;66868;42.708;23.404;2023-04-20T07:04:44;94857.75;;;11.07;82.68
77702;BME280;66868;42.708;23.404;2023-04-20T07:07:09;94861.31;;;11.05;82.73
77702;BME280;66868;42.708;23.404;2023-04-20T07:09:34;94832.28;;;10.84;81.46
77702;BME280;66868;42.708;23.404;2023-04-20T07:12:00;94861.50;;;11.15;82.07
77702;BME280;66868;42.708;23.404;2023-04-20T07:14:25;94857.91;;;11.19;82.22
77702;BME280;66868;42.708;23.404;2023-04-20T07:16:51;94849.78;;;11.14;82.15
77702;BME280;66868;42.708;23.404;2023-04-20T07:19:17;94869.75;;;11.31;81.13
77702;BME280;66868;42.708;23.404;2023-04-20T07:21:42;94863.06;;;11.30;80.95
77702;BME280;66868;42.708;23.404;2023-04-20T07:24:08;94863.78;;;11.32;81.20
77702;BME280;66868;42.708;23.404;2023-04-20T07:26:33;94870.56;;;11.44;79.84
77702;BME280;66868;42.708;23.404;2023-04-20T07:28:58;94857.50;;;11.50;77.92
77702;BME280;66868;42.708;23.404;2023-04-20T07:31:31;94871.69;;;11.52;77.44
77702;BME280;66868;42.708;23.404;2023-04-20T07:33:56;94855.88;;;11.36;78.84
77702;BME280;66868;42.708;23.404;2023-04-20T07:36:22;94861.75;;;11.37;79.84
77702;BME280;66868;42.708;23.404;2023-04-20T07:38:48;94852.31;;;11.39;78.22
77702;BME280;66868;42.708;23.404;2023-04-20T07:41:14;94860.13;;;11.36;79.57
77702;BME280;66868;42.708;23.404;2023-04-20T07:43:39;94853.22;;;11.38;77.85
77702;BME280;66868;42.708;23.404;2023-04-20T07:46:05;94829.94;;;11.33;77.80
77702;BME280;66868;42.708;23.404;2023-04-20T07:48:32;94840.66;;;11.49;78.51
77702;BME280;66868;42.708;23.404;2023-04-20T07:50:58;94854.06;;;11.51;78.71
77702;BME280;66868;42.708;23.404;2023-04-20T07:53:24;94851.69;;;11.61;77.50
77702;BME280;66868;42.708;23.404;2023-04-20T07:55:49;94863.66;;;11.71;79.27
77702;BME280;66868;42.708;23.404;2023-04-20T07:58:15;94860.66;;;11.79;77.94
77702;BME280;66868;42.708;23.404;2023-04-20T08:00:41;94860.94;;;12.00;77.24
77702;BME280;66868;42.708;23.404;2023-04-20T08:03:06;94850.22;;;12.20;77.23
77702;BME280;66868;42.708;23.404;2023-04-20T08:05:32;94878.28;;;12.42;75.30
77702;BME280;66868;42.708;23.404;2023-04-20T08:07:57;94858.47;;;12.47;73.76
77702;BME280;66868;42.708;23.404;2023-04-20T08:10:23;94863.75;;;12.68;75.13
77702;BME280;66868;42.708;23.404;2023-04-20T08:12:49;94860.69;;;12.75;73.98
77702;BME280;66868;42.708;23.404;2023-04-20T08:15:14;94865.00;;;12.62;73.07
77702;BME280;66868;42.708;23.404;2023-04-20T08:17:40;94850.63;;;12.50;72.71
77702;BME280;66868;42.708;23.404;2023-04-20T08:20:06;94865.75;;;12.52;71.99
77702;BME280;66868;42.708;23.404;2023-04-20T08:22:32;94863.59;;;12.58;73.38
77702;BME280;66868;42.708;23.404;2023-04-20T08:24:58;94859.72;;;12.65;72.96
77702;BME280;66868;42.708;23.404;2023-04-20T08:27:23;94861.84;;;12.82;72.84
77702;BME280;66868;42.708;23.404;2023-04-20T08:29:49;94864.47;;;13.05;73.99
77702;BME280;66868;42.708;23.404;2023-04-20T08:32:14;94859.50;;;13.27;72.38
77702;BME280;66868;42.708;23.404;2023-04-20T08:34:42;94860.78;;;13.44;72.85
77702;BME280;66868;42.708;23.404;2023-04-20T08:37:08;94864.13;;;13.33;70.87
77702;BME280;66868;42.708;23.404;2023-04-20T08:39:33;94870.28;;;13.53;72.51
77702;BME280;66868;42.708;23.404;2023-04-20T08:41:59;94867.75;;;13.53;69.13
77702;BME280;66868;42.708;23.404;2023-04-20T08:44:24;94861.28;;;13.60;69.09
77702;BME280;66868;42.708;23.404;2023-04-20T08:46:50;94854.25;;;13.63;68.53
77702;BME280;66868;42.708;23.404;2023-04-20T08:49:16;94872.97;;;13.62;68.53
77702;BME280;66868;42.708;23.404;2023-04-20T08:51:43;94867.88;;;13.62;67.37
77702;BME280;66868;42.708;23.404;2023-04-20T08:54:10;94860.69;;;13.45;69.44
77702;BME280;66868;42.708;23.404;2023-04-20T08:56:38;94878.28;;;13.59;68.42
77702;BME280;66868;42.708;23.404;2023-04-20T08:59:04;94865.09;;;13.54;69.44
77702;BME280;66868;42.708;23.404;2023-04-20T09:01:31;94845.66;;;13.42;68.82
77702;BME280;66868;42.708;23.404;2023-04-20T09:03:58;94864.41;;;13.63;67.95
77702;BME280;66868;42.708;23.404;2023-04-20T09:06:24;94860.72;;;13.67;68.73
77702;BME280;66868;42.708;23.404;2023-04-20T09:08:51;94852.38;;;13.65;69.16
77702;BME280;66868;42.708;23.404;2023-04-20T09:11:24;94874.34;;;13.89;68.24
77702;BME280;66868;42.708;23.404;2023-04-20T09:14:04;94852.84;;;13.93;68.71
77702;BME280;66868;42.708;23.404;2023-04-20T09:16:31;94857.81;;;13.94;68.15
77702;BME280;66868;42.708;23.404;2023-04-20T09:18:58;94854.22;;;14.08;67.04
77702;BME280;66868;42.708;23.404;2023-04-20T09:21:25;94859.53;;;14.16;67.53
77702;BME280;66868;42.708;23.404;2023-04-20T09:24:03;94855.16;;;14.18;65.94
77702;BME280;66868;42.708;23.404;2023-04-20T09:26:34;94859.22;;;14.09;68.13
77702;BME280;66868;42.708;23.404;2023-04-20T09:29:01;94855.97;;;14.19;67.10
77702;BME280;66868;42.708;23.404;2023-04-20T09:31:27;94857.91;;;14.15;66.33
77702;BME280;66868;42.708;23.404;2023-04-20T09:34:02;94853.97;;;14.11;67.04
77702;BME280;66868;42.708;23.404;2023-04-20T09:36:54;94853.53;;;14.17;66.18
77702;BME280;66868;42.708;23.404;2023-04-20T09:39:23;94842.28;;;14.20;66.14
77702;BME280;66868;42.708;23.404;2023-04-20T09:41:50;94854.53;;;14.48;66.69
77702;BME280;66868;42.708;23.404;2023-04-20T09:44:17;94844.69;;;14.54;65.43
77702;BME280;66868;42.708;23.404;2023-04-20T09:46:43;94842.25;;;14.53;66.19
77702;BME280;66868;42.708;23.404;2023-04-20T09:49:10;94856.25;;;14.58;65.01
77702;BME280;66868;42.708;23.404;2023-04-20T09:51:38;94855.97;;;14.73;64.18
77702;BME280;66868;42.708;23.404;2023-04-20T09:54:06;94851.53;;;14.86;64.53
77702;BME280;66868;42.708;23.404;2023-04-20T09:56:33;94840.38;;;14.98;64.48
77702;BME280;66868;42.708;23.404;2023-04-20T09:59:00;94836.38;;;15.05;63.69
77702;BME280;66868;42.708;23.404;2023-04-20T10:01:29;94840.00;;;15.02;63.32
77702;BME280;66868;42.708;23.404;2023-04-20T10:03:58;94834.28;;;15.10;63.62
77702;BME280;66868;42.708;23.404;2023-04-20T10:06:27;94835.72;;;15.24;63.91
77702;BME280;66868;42.708;23.404;2023-04-20T10:08:53;94824.94;;;15.20;65.57
77702;BME280;66868;42.708;23.404;2023-04-20T10:11:48;94834.50;;;15.28;61.90
77702;BME280;66868;42.708;23.404;2023-04-20T10:14:16;94824.19;;;15.29;64.76
77702;BME280;66868;42.708;23.404;2023-04-20T10:16:43;94821.19;;;15.45;63.92
77702;BME280;66868;42.708;23.404;2023-04-20T10:19:08;94820.34;;;15.56;62.45
77702;BME280;66868;42.708;23.404;2023-04-20T10:21:44;94830.66;;;15.54;61.20
77702;BME280;66868;42.708;23.404;2023-04-20T10:24:10;94822.22;;;15.54;61.75
77702;BME280;66868;42.708;23.404;2023-04-20T10:26:42;94820.38;;;15.65;61.70
77702;BME280;66868;42.708;23.404;2023-04-20T10:29:09;94826.72;;;15.71;60.10
77702;BME280;66868;42.708;23.404;2023-04-20T10:31:36;94813.88;;;15.52;61.46
77702;BME280;66868;42.708;23.404;2023-04-20T10:34:02;94811.50;;;15.60;61.34
77702;BME280;66868;42.708;23.404;2023-04-20T10:36:32;94808.50;;;15.55;62.31
77702;BME280;66868;42.708;23.404;2023-04-20T10:39:21;94809.22;;;15.57;60.61
77702;BME280;66868;42.708;23.404;2023-04-20T10:41:54;94817.78;;;15.56;59.61
77702;BME280;66868;42.708;23.404;2023-04-20T10:44:20;94811.50;;;15.60;60.90
77702;BME280;66868;42.708;23.404;2023-04-20T10:46:49;94804.00;;;15.68;61.48
77702;BME280;66868;42.708;23.404;2023-04-20T10:49:16;94795.72;;;15.75;59.31
77702;BME280;66868;42.708;23.404;2023-04-20T10:51:49;94812.66;;;15.76;60.58
77702;BME280;66868;42.708;23.404;2023-04-20T10:54:14;94811.66;;;15.98;58.77
77702;BME280;66868;42.708;23.404;2023-04-20T10:56:42;94810.59;;;16.10;58.75
77702;BME280;66868;42.708;23.404;2023-04-20T10:59:12;94820.44;;;16.24;59.35
77702;BME280;66868;42.708;23.404;2023-04-20T11:01:38;94818.16;;;16.21;56.92
77702;BME280;66868;42.708;23.404;2023-04-20T11:04:03;94808.75;;;16.22;57.51
77702;BME280;66868;42.708;23.404;2023-04-20T11:06:30;94807.72;;;16.44;57.94
77702;BME280;66868;42.708;23.404;2023-04-20T11:08:56;94759.78;;;16.07;56.16
77702;BME280;66868;42.708;23.404;2023-04-20T11:11:23;94800.06;;;16.44;56.84
77702;BME280;66868;42.708;23.404;2023-04-20T11:13:50;94797.75;;;16.31;56.68
77702;BME280;66868;42.708;23.404;2023-04-20T11:16:17;94800.25;;;16.12;57.20
77702;BME280;66868;42.708;23.404;2023-04-20T11:18:53;94790.44;;;16.07;57.87
77702;BME280;66868;42.708;23.404;2023-04-20T11:21:22;94797.16;;;16.08;57.25
77702;BME280;66868;42.708;23.404;2023-04-20T11:24:24;94796.00;;;15.82;58.51
77702;BME280;66868;42.708;23.404;2023-04-20T11:27:05;94799.88;;;16.16;56.57
77702;BME280;66868;42.708;23.404;2023-04-20T11:29:37;94768.44;;;16.25;55.67
77702;BME280;66868;42.708;23.404;2023-04-20T11:32:05;94797.50;;;16.44;55.71
77702;BME280;66868;42.708;23.404;2023-04-20T11:34:35;94793.72;;;16.48;55.55
77702;BME280;66868;42.708;23.404;2023-04-20T11:39:29;94795.63;;;16.55;55.99
77702;BME280;66868;42.708;23.404;2023-04-20T11:41:55;94793.38;;;16.62;56.31
77702;BME280;66868;42.708;23.404;2023-04-20T11:44:22;94787.31;;;16.72;56.72
77702;BME280;66868;42.708;23.404;2023-04-20T11:46:48;94783.97;;;16.82;56.11
77702;BME280;66868;42.708;23.404;2023-04-20T11:49:16;94783.44;;;16.88;55.67
77702;BME280;66868;42.708;23.404;2023-04-20T11:51:47;94789.19;;;16.80;54.74
77702;BME280;66868;42.708;23.404;2023-04-20T11:54:13;94786.50;;;16.82;54.38
77702;BME280;66868;42.708;23.404;2023-04-20T11:56:39;94796.88;;;16.70;55.12
77702;BME280;66868;42.708;23.404;2023-04-20T11:59:06;94786.50;;;16.62;55.86
77702;BME280;66868;42.708;23.404;2023-04-20T12:01:32;94779.53;;;16.64;55.94
77702;BME280;66868;42.708;23.404;2023-04-20T12:03:57;94776.41;;;16.61;55.33
77702;BME280;66868;42.708;23.404;2023-04-20T12:06:26;94771.66;;;16.56;56.47
77702;BME280;66868;42.708;23.404;2023-04-20T12:08:51;94768.72;;;16.32;58.55
77702;BME280;66868;42.708;23.404;2023-04-20T12:11:16;94779.84;;;16.21;58.60
77702;BME280;66868;42.708;23.404;2023-04-20T12:13:42;94784.75;;;15.94;59.57
77702;BME280;66868;42.708;23.404;2023-04-20T12:16:07;94777.28;;;15.41;61.22
77702;BME280;66868;42.708;23.404;2023-04-20T12:18:33;94788.53;;;15.39;60.88
77702;BME280;66868;42.708;23.404;2023-04-20T12:20:58;94779.09;;;15.09;62.56
77702;BME280;66868;42.708;23.404;2023-04-20T12:23:25;94789.97;;;14.90;64.93
77702;BME280;66868;42.708;23.404;2023-04-20T12:25:51;94779.72;;;14.60;66.24
77702;BME280;66868;42.708;23.404;2023-04-20T12:28:16;94783.09;;;14.49;64.80
77702;BME280;66868;42.708;23.404;2023-04-20T12:30:41;94787.06;;;14.42;65.88
77702;BME280;66868;42.708;23.404;2023-04-20T12:33:07;94781.06;;;14.32;66.59
77702;BME280;66868;42.708;23.404;2023-04-20T12:35:32;94780.41;;;14.19;66.30
77702;BME280;66868;42.708;23.404;2023-04-20T12:37:58;94770.44;;;14.16;65.28
77702;BME280;66868;42.708;23.404;2023-04-20T12:40:23;94758.88;;;14.12;66.06
77702;BME280;66868;42.708;23.404;2023-04-20T12:42:49;94754.84;;;14.09;66.96
77702;BME280;66868;42.708;23.404;2023-04-20T12:45:14;94761.69;;;14.09;67.79
77702;BME280;66868;42.708;23.404;2023-04-20T12:47:40;94757.44;;;14.30;63.66
77702;BME280;66868;42.708;23.404;2023-04-20T12:50:05;94756.53;;;14.20;66.18
77702;BME280;66868;42.708;23.404;2023-04-20T12:52:34;94772.34;;;14.46;67.54
77702;BME280;66868;42.708;23.404;2023-04-20T12:54:59;94772.19;;;14.58;66.71